createdAt,value
2022-07-31T00:01:16.859Z,15.80
2022-07-31T00:03:43.488Z,15.79
2022-07-31T00:06:11.935Z,15.79
2022-07-31T00:08:38.296Z,15.79
2022-07-31T00:11:04.700Z,15.77
2022-07-31T00:13:57.952Z,15.77
2022-07-31T00:16:18.986Z,15.77
2022-07-31T00:18:45.468Z,15.77
2022-07-31T00:21:15.080Z,15.77
2022-07-31T00:23:42.887Z,15.77
2022-07-31T00:26:11.175Z,15.76
2022-07-31T00:28:38.211Z,15.77
2022-07-31T00:31:04.630Z,15.77
2022-07-31T00:33:34.402Z,15.77
2022-07-31T00:36:01.216Z,15.78
2022-07-31T00:38:28.152Z,15.76
2022-07-31T00:40:56.567Z,15.77
2022-07-31T00:43:27.456Z,15.77
2022-07-31T00:45:59.388Z,15.77
2022-07-31T00:48:27.735Z,15.80
2022-07-31T00:50:57.289Z,15.81
2022-07-31T00:53:24.047Z,15.82
2022-07-31T00:55:56.945Z,15.82
2022-07-31T00:58:35.483Z,15.82
2022-07-31T01:01:05.302Z,15.82
2022-07-31T01:03:35.174Z,15.82
2022-07-31T01:06:05.344Z,15.82
2022-07-31T01:08:33.355Z,15.84
2022-07-31T01:11:21.126Z,15.84
2022-07-31T01:13:53.909Z,15.83
2022-07-31T01:16:24.061Z,15.82
2022-07-31T01:18:55.321Z,15.82
2022-07-31T01:22:33.322Z,15.80
2022-07-31T01:25:09.135Z,15.80
2022-07-31T01:27:58.159Z,15.81
2022-07-31T01:31:05.003Z,15.80
2022-07-31T01:33:46.212Z,15.79
2022-07-31T01:36:24.374Z,15.78
2022-07-31T01:38:55.215Z,15.79
2022-07-31T01:41:28.308Z,15.78
2022-07-31T01:43:57.709Z,15.79
2022-07-31T01:46:27.278Z,15.78
2022-07-31T01:48:55.822Z,15.77
2022-07-31T01:51:26.997Z,15.75
2022-07-31T01:53:55.236Z,15.74
2022-07-31T01:56:24.004Z,15.73
2022-07-31T01:58:51.948Z,15.72
2022-07-31T02:01:39.786Z,15.72
2022-07-31T02:04:10.456Z,15.69
2022-07-31T02:06:40.422Z,15.68
2022-07-31T02:09:08.154Z,15.68
2022-07-31T02:11:35.724Z,15.67
2022-07-31T02:14:21.145Z,15.67
2022-07-31T02:16:49.464Z,15.66
2022-07-31T02:19:23.473Z,15.66
2022-07-31T02:21:50.060Z,15.65
2022-07-31T02:24:17.161Z,15.64
2022-07-31T02:26:46.167Z,15.63
2022-07-31T02:29:19.431Z,15.62
2022-07-31T02:32:03.062Z,15.62
2022-07-31T02:34:34.323Z,15.62
2022-07-31T02:37:02.553Z,15.61
2022-07-31T02:39:40.259Z,15.60
2022-07-31T02:42:20.922Z,15.58
2022-07-31T02:44:48.465Z,15.57
2022-07-31T02:47:15.740Z,15.57
2022-07-31T02:49:44.779Z,15.57
2022-07-31T02:52:12.561Z,15.58
2022-07-31T02:54:40.683Z,15.58
2022-07-31T02:57:09.259Z,15.58
2022-07-31T02:59:40.727Z,15.59
2022-07-31T03:02:07.656Z,15.59
2022-07-31T03:04:39.156Z,15.60
2022-07-31T03:07:05.632Z,15.59
2022-07-31T03:09:33.072Z,15.59
2022-07-31T03:12:25.741Z,15.60
2022-07-31T03:14:53.985Z,15.62
2022-07-31T03:17:22.893Z,15.61
2022-07-31T03:20:08.798Z,15.60
2022-07-31T03:22:39.171Z,15.60
2022-07-31T03:25:08.068Z,15.58
2022-07-31T03:27:35.045Z,15.57
2022-07-31T03:30:02.309Z,15.56
2022-07-31T03:32:29.960Z,15.55
2022-07-31T03:34:57.202Z,15.54
2022-07-31T03:37:23.588Z,15.52
2022-07-31T03:39:50.352Z,15.51
2022-07-31T03:42:19.254Z,15.50
2022-07-31T03:44:47.661Z,15.50
2022-07-31T03:47:16.499Z,15.52
2022-07-31T03:49:44.179Z,15.53
2022-07-31T03:52:12.501Z,15.53
2022-07-31T03:54:42.069Z,15.56
2022-07-31T03:57:19.354Z,15.56
2022-07-31T03:59:50.214Z,15.58
2022-07-31T04:02:17.929Z,15.59
2022-07-31T04:04:49.932Z,15.61
2022-07-31T04:07:16.614Z,15.64
2022-07-31T04:09:50.087Z,15.65
2022-07-31T04:12:20.619Z,15.67
2022-07-31T04:14:47.972Z,15.70
2022-07-31T04:17:14.626Z,15.72
2022-07-31T04:19:44.060Z,15.73
2022-07-31T04:22:10.840Z,15.76
2022-07-31T04:24:38.190Z,15.79
2022-07-31T04:27:47.847Z,15.82
2022-07-31T04:30:17.656Z,15.86
2022-07-31T04:32:44.768Z,15.88
2022-07-31T04:35:14.613Z,15.91
2022-07-31T04:37:41.085Z,15.95
2022-07-31T04:40:16.577Z,15.98
2022-07-31T04:42:43.916Z,16.00
2022-07-31T04:45:10.371Z,16.03
2022-07-31T04:47:37.651Z,16.06
2022-07-31T04:50:07.449Z,16.10
2022-07-31T04:52:34.498Z,16.15
2022-07-31T04:55:08.261Z,16.21
2022-07-31T04:57:34.976Z,16.26
2022-07-31T05:00:01.758Z,16.33
2022-07-31T05:02:31.928Z,16.37
2022-07-31T05:04:58.417Z,16.44
2022-07-31T05:07:31.285Z,16.54
2022-07-31T05:10:00.884Z,16.62
2022-07-31T05:12:28.107Z,16.69
2022-07-31T05:14:55.510Z,16.76
2022-07-31T05:17:22.431Z,16.81
2022-07-31T05:20:13.357Z,16.90
2022-07-31T05:22:57.105Z,16.96
2022-07-31T05:25:39.765Z,16.98
2022-07-31T05:28:09.787Z,17.01
2022-07-31T05:30:36.546Z,17.08
2022-07-31T05:33:04.801Z,17.22
2022-07-31T05:35:31.262Z,17.32
2022-07-31T05:37:57.768Z,17.41
2022-07-31T05:40:40.217Z,17.52
2022-07-31T05:43:25.293Z,17.64
2022-07-31T05:46:16.764Z,17.76
2022-07-31T05:48:44.356Z,17.89
2022-07-31T05:51:12.662Z,17.97
2022-07-31T05:53:40.403Z,18.10
2022-07-31T05:56:30.515Z,18.24
2022-07-31T05:58:59.748Z,18.44
2022-07-31T06:01:26.191Z,18.77
2022-07-31T06:03:53.331Z,19.11
2022-07-31T06:06:24.222Z,19.28
2022-07-31T06:08:50.770Z,19.38
2022-07-31T06:11:23.191Z,19.58
2022-07-31T06:13:54.923Z,19.84
2022-07-31T06:16:28.296Z,20.07
2022-07-31T06:18:54.847Z,20.29
2022-07-31T06:23:48.366Z,20.79
2022-07-31T06:26:22.286Z,20.96
2022-07-31T06:28:52.494Z,21.09
2022-07-31T06:31:20.738Z,21.16
2022-07-31T06:33:48.861Z,21.20
2022-07-31T06:36:17.608Z,21.26
2022-07-31T06:38:56.882Z,21.17
2022-07-31T06:41:46.050Z,20.92
2022-07-31T06:44:28.817Z,20.76
2022-07-31T06:47:30.659Z,20.66
2022-07-31T06:50:16.035Z,20.83
2022-07-31T06:52:52.503Z,20.85
2022-07-31T06:55:20.828Z,20.87
2022-07-31T06:57:47.710Z,20.87
2022-07-31T07:00:20.382Z,20.83
2022-07-31T07:02:48.238Z,20.86
2022-07-31T07:05:15.596Z,20.92
2022-07-31T07:07:42.253Z,21.02
2022-07-31T07:10:09.964Z,21.07
2022-07-31T07:13:02.386Z,21.11
2022-07-31T07:15:37.925Z,21.15
2022-07-31T07:18:06.574Z,21.23
2022-07-31T07:20:36.725Z,21.45
2022-07-31T07:23:03.377Z,21.55
2022-07-31T07:25:47.160Z,21.56
2022-07-31T07:28:30.960Z,21.63
2022-07-31T07:31:03.212Z,21.67
2022-07-31T07:33:41.584Z,21.66
2022-07-31T07:36:22.300Z,21.73
2022-07-31T07:38:55.618Z,21.77
2022-07-31T07:41:25.977Z,21.73
2022-07-31T07:43:53.127Z,21.68
2022-07-31T07:46:23.757Z,21.69
2022-07-31T07:48:53.409Z,21.83
2022-07-31T07:51:34.453Z,21.92
2022-07-31T07:54:15.108Z,21.93
2022-07-31T07:57:21.148Z,22.07
2022-07-31T08:00:10.271Z,22.18
2022-07-31T08:03:46.600Z,22.19
2022-07-31T08:05:40.375Z,22.27
2022-07-31T08:08:06.956Z,22.34
2022-07-31T08:10:48.559Z,22.52
2022-07-31T08:13:21.582Z,22.66
2022-07-31T08:15:53.986Z,22.69
2022-07-31T08:18:27.311Z,22.54
2022-07-31T08:20:55.507Z,22.62
2022-07-31T08:23:22.045Z,22.74
2022-07-31T08:25:49.368Z,22.83
2022-07-31T08:28:23.951Z,22.81
2022-07-31T08:30:51.263Z,22.66
2022-07-31T08:33:20.214Z,22.76
2022-07-31T08:35:54.100Z,22.99
2022-07-31T08:38:20.798Z,23.11
2022-07-31T08:41:02.906Z,23.01
2022-07-31T08:44:02.807Z,22.81
2022-07-31T08:46:19.262Z,22.74
2022-07-31T08:48:49.921Z,22.90
2022-07-31T08:51:17.873Z,23.03
2022-07-31T08:54:08.388Z,23.16
2022-07-31T08:56:36.058Z,23.32
2022-07-31T08:59:04.704Z,23.45
2022-07-31T09:01:36.472Z,23.56
2022-07-31T09:04:04.815Z,23.58
2022-07-31T09:06:32.091Z,23.56
2022-07-31T09:08:58.646Z,23.62
2022-07-31T09:11:25.158Z,23.75
2022-07-31T09:14:03.017Z,23.92
2022-07-31T09:16:49.713Z,23.96
2022-07-31T09:19:53.461Z,23.83
2022-07-31T09:22:26.409Z,23.66
2022-07-31T09:24:54.238Z,23.49
2022-07-31T09:27:27.954Z,23.26
2022-07-31T09:29:56.967Z,23.20
2022-07-31T09:32:35.297Z,23.03
2022-07-31T09:35:12.272Z,23.11
2022-07-31T09:37:39.629Z,23.26
2022-07-31T09:40:34.224Z,23.36
2022-07-31T09:43:04.284Z,23.36
2022-07-31T09:45:33.057Z,23.34
2022-07-31T09:48:12.540Z,23.49
2022-07-31T09:50:59.068Z,23.59
2022-07-31T09:53:43.005Z,23.67
2022-07-31T09:56:31.753Z,23.91
2022-07-31T09:58:58.689Z,24.04
2022-07-31T10:01:26.168Z,23.92
2022-07-31T10:03:59.309Z,24.02
2022-07-31T10:06:27.135Z,24.20
2022-07-31T10:08:56.145Z,24.12
2022-07-31T10:11:27.393Z,23.97
2022-07-31T10:14:16.070Z,23.85
2022-07-31T10:16:48.500Z,23.74
2022-07-31T10:19:37.483Z,23.87
2022-07-31T10:22:30.144Z,23.93
2022-07-31T10:25:00.817Z,23.99
2022-07-31T10:27:29.307Z,23.88
2022-07-31T10:30:07.145Z,23.83
2022-07-31T10:32:37.227Z,23.86
2022-07-31T10:35:22.534Z,23.75
2022-07-31T10:38:18.871Z,23.72
2022-07-31T10:41:17.249Z,23.82
2022-07-31T10:43:50.073Z,23.99
2022-07-31T10:46:36.332Z,24.18
2022-07-31T10:49:40.712Z,24.23
2022-07-31T10:52:27.191Z,24.23
2022-07-31T10:55:01.786Z,24.16
2022-07-31T10:57:56.203Z,24.16
2022-07-31T11:00:43.305Z,24.20
2022-07-31T11:03:21.305Z,24.31
2022-07-31T11:06:06.877Z,24.45
2022-07-31T11:08:54.216Z,24.38
2022-07-31T11:11:48.998Z,24.35
2022-07-31T11:14:39.088Z,24.31
2022-07-31T11:18:22.149Z,24.38
2022-07-31T11:20:42.698Z,24.37
2022-07-31T11:23:14.583Z,24.43
2022-07-31T11:25:41.410Z,24.56
2022-07-31T11:28:18.258Z,24.52
2022-07-31T11:30:52.825Z,24.54
2022-07-31T11:33:42.133Z,24.65
2022-07-31T11:36:15.393Z,24.77
2022-07-31T11:38:47.517Z,24.58
2022-07-31T11:41:16.587Z,24.61
2022-07-31T11:43:46.176Z,24.69
2022-07-31T11:46:18.666Z,24.83
2022-07-31T11:48:45.841Z,24.96
2022-07-31T11:51:19.702Z,25.06
2022-07-31T11:53:51.155Z,25.13
2022-07-31T11:56:26.699Z,25.04
2022-07-31T11:58:55.949Z,25.04
2022-07-31T12:01:28.609Z,25.12
2022-07-31T12:03:57.009Z,25.04
2022-07-31T12:06:23.857Z,24.97
2022-07-31T12:08:53.413Z,24.94
2022-07-31T12:11:20.826Z,25.13
2022-07-31T12:13:48.590Z,25.30
2022-07-31T12:16:15.896Z,25.37
2022-07-31T12:18:50.037Z,25.38
2022-07-31T12:21:17.733Z,25.12
2022-07-31T12:23:51.233Z,25.01
2022-07-31T12:26:26.488Z,24.93
2022-07-31T12:29:00.770Z,24.97
2022-07-31T12:31:28.425Z,25.14
2022-07-31T12:33:55.324Z,25.24
2022-07-31T12:36:21.817Z,25.38
2022-07-31T12:38:59.887Z,25.33
2022-07-31T12:41:27.900Z,25.27
2022-07-31T12:43:55.032Z,25.45
2022-07-31T12:46:37.161Z,25.62
2022-07-31T12:49:04.989Z,25.66
2022-07-31T12:51:45.206Z,25.51
2022-07-31T12:54:15.450Z,25.53
2022-07-31T12:56:43.004Z,25.56
2022-07-31T12:59:11.604Z,25.71
2022-07-31T13:01:38.598Z,25.88
2022-07-31T13:04:08.051Z,26.00
2022-07-31T13:06:48.153Z,26.14
2022-07-31T13:09:14.610Z,26.27
2022-07-31T13:11:46.495Z,26.35
2022-07-31T13:14:16.358Z,26.31
2022-07-31T13:16:44.465Z,26.28
2022-07-31T13:19:11.029Z,26.22
2022-07-31T13:21:49.347Z,26.18
2022-07-31T13:24:19.095Z,26.21
2022-07-31T13:26:46.938Z,26.23
2022-07-31T13:29:13.555Z,26.27
2022-07-31T13:31:41.268Z,26.35
2022-07-31T13:34:07.785Z,26.28
2022-07-31T13:36:39.324Z,26.13
2022-07-31T13:39:07.364Z,26.16
2022-07-31T13:41:34.846Z,26.15
2022-07-31T13:44:03.002Z,26.20
2022-07-31T13:46:31.073Z,26.31
2022-07-31T13:48:58.903Z,26.43
2022-07-31T13:51:28.852Z,26.50
2022-07-31T13:53:56.187Z,26.61
2022-07-31T13:56:39.469Z,26.65
2022-07-31T13:59:13.151Z,26.66
2022-07-31T14:02:03.781Z,26.62
2022-07-31T14:04:32.475Z,26.60
2022-07-31T14:07:06.049Z,26.59
2022-07-31T14:09:34.187Z,26.53
2022-07-31T14:12:04.624Z,26.46
2022-07-31T14:14:31.673Z,26.53
2022-07-31T14:16:58.092Z,26.52
2022-07-31T14:19:24.528Z,26.57
2022-07-31T14:21:57.075Z,26.63
2022-07-31T14:24:25.495Z,26.66
2022-07-31T14:26:52.417Z,26.72
2022-07-31T14:29:19.402Z,26.84
2022-07-31T14:31:46.193Z,26.88
2022-07-31T14:34:12.604Z,26.78
2022-07-31T14:36:39.151Z,26.71
2022-07-31T14:39:05.617Z,26.73
2022-07-31T14:41:32.153Z,26.76
2022-07-31T14:43:59.208Z,26.81
2022-07-31T14:46:26.857Z,26.79
2022-07-31T14:48:53.269Z,26.82
2022-07-31T14:51:19.821Z,26.83
2022-07-31T14:53:49.265Z,26.77
2022-07-31T14:56:23.424Z,26.72
2022-07-31T14:59:01.157Z,26.62
2022-07-31T15:01:30.681Z,26.57
2022-07-31T15:03:57.956Z,26.51
2022-07-31T15:06:41.630Z,26.58
2022-07-31T15:09:12.757Z,26.62
2022-07-31T15:11:59.365Z,26.52
2022-07-31T15:14:29.521Z,26.44
2022-07-31T15:16:56.665Z,26.45
2022-07-31T15:19:23.241Z,26.45
2022-07-31T15:22:10.990Z,26.52
2022-07-31T15:24:38.514Z,26.56
2022-07-31T15:27:08.047Z,26.61
2022-07-31T15:30:05.159Z,26.60
2022-07-31T15:32:22.189Z,26.52
2022-07-31T15:34:48.539Z,26.48
2022-07-31T15:37:19.891Z,26.49
2022-07-31T15:40:01.594Z,26.46
2022-07-31T15:42:31.602Z,26.38
2022-07-31T15:44:58.101Z,26.35
2022-07-31T15:47:24.707Z,26.38
2022-07-31T15:49:51.232Z,26.42
2022-07-31T15:52:19.407Z,26.45
2022-07-31T15:54:46.623Z,26.45
2022-07-31T15:57:13.307Z,26.42
2022-07-31T15:59:39.696Z,26.39
2022-07-31T16:02:06.311Z,26.43
2022-07-31T16:04:34.131Z,26.47
2022-07-31T16:08:29.178Z,26.55
2022-07-31T16:10:02.682Z,26.57
2022-07-31T16:12:34.619Z,26.49
2022-07-31T16:15:01.841Z,26.49
2022-07-31T16:17:37.184Z,26.46
2022-07-31T16:20:12.415Z,26.44
2022-07-31T16:22:40.606Z,26.49
2022-07-31T16:25:09.400Z,26.50
2022-07-31T16:27:38.496Z,26.48
2022-07-31T16:30:06.815Z,26.50
2022-07-31T16:32:33.519Z,26.54
2022-07-31T16:35:01.526Z,26.55
2022-07-31T16:37:50.361Z,26.57
2022-07-31T16:40:29.808Z,26.60
2022-07-31T16:43:00.971Z,26.57
2022-07-31T16:45:29.386Z,26.53
2022-07-31T16:47:56.558Z,26.51
2022-07-31T16:50:23.396Z,26.53
2022-07-31T16:52:54.175Z,26.54
2022-07-31T16:55:51.784Z,26.50
2022-07-31T16:58:10.892Z,26.40
2022-07-31T17:00:38.916Z,26.36
2022-07-31T17:03:05.825Z,26.35
2022-07-31T17:05:32.306Z,26.31
2022-07-31T17:07:58.921Z,26.26
2022-07-31T17:10:27.008Z,26.16
2022-07-31T17:12:54.007Z,26.08
2022-07-31T17:15:20.802Z,26.00
2022-07-31T17:17:47.541Z,25.97
2022-07-31T17:20:14.951Z,25.98
2022-07-31T17:22:41.792Z,25.98
2022-07-31T17:25:10.827Z,25.98
2022-07-31T17:27:40.004Z,25.94
2022-07-31T17:30:09.355Z,25.93
2022-07-31T17:32:38.883Z,25.95
2022-07-31T17:35:06.343Z,25.87
2022-07-31T17:37:32.740Z,25.78
2022-07-31T17:39:59.222Z,25.72
2022-07-31T17:42:27.957Z,25.67
2022-07-31T17:44:55.906Z,25.63
2022-07-31T17:47:25.295Z,25.62
2022-07-31T17:49:52.935Z,25.59
2022-07-31T17:52:20.374Z,25.57
2022-07-31T17:54:48.158Z,25.55
2022-07-31T17:57:14.854Z,25.50
2022-07-31T17:59:42.139Z,25.47
2022-07-31T18:02:09.528Z,25.45
2022-07-31T18:04:37.183Z,25.41
2022-07-31T18:07:05.834Z,25.35
2022-07-31T18:09:33.502Z,25.27
2022-07-31T18:12:01.231Z,25.18
2022-07-31T18:14:29.138Z,25.09
2022-07-31T18:16:55.610Z,25.04
2022-07-31T18:19:22.515Z,25.01
2022-07-31T18:21:50.601Z,24.99
2022-07-31T18:24:17.456Z,24.95
2022-07-31T18:26:43.981Z,24.91
2022-07-31T18:29:10.405Z,24.87
2022-07-31T18:31:37.465Z,24.83
2022-07-31T18:34:06.297Z,24.80
2022-07-31T18:36:33.857Z,24.76
2022-07-31T18:39:00.852Z,24.72
2022-07-31T18:41:27.380Z,24.68
2022-07-31T18:43:54.453Z,24.62
2022-07-31T18:46:23.003Z,24.57
2022-07-31T18:48:55.036Z,24.52
2022-07-31T18:51:23.917Z,24.47
2022-07-31T18:53:51.252Z,24.43
2022-07-31T18:56:17.850Z,24.38
2022-07-31T18:58:44.380Z,24.33
2022-07-31T19:01:11.280Z,24.28
2022-07-31T19:03:37.877Z,24.22
2022-07-31T19:06:05.577Z,24.17
2022-07-31T19:08:35.095Z,24.12
2022-07-31T19:11:02.587Z,24.08
2022-07-31T19:13:29.287Z,24.01
2022-07-31T19:15:56.200Z,23.95
2022-07-31T19:18:28.094Z,23.89
2022-07-31T19:21:19.123Z,23.82
2022-07-31T19:23:43.582Z,23.74
2022-07-31T19:26:11.273Z,23.67
2022-07-31T19:28:39.079Z,23.59
2022-07-31T19:31:06.564Z,23.52
2022-07-31T19:33:34.333Z,23.45
2022-07-31T19:36:03.232Z,23.39
2022-07-31T19:38:31.862Z,23.31
2022-07-31T19:40:59.061Z,23.26
2022-07-31T19:43:25.594Z,23.22
2022-07-31T19:45:58.777Z,23.17
2022-07-31T19:48:40.237Z,23.12
2022-07-31T19:51:06.862Z,23.09
2022-07-31T19:53:35.672Z,23.06
2022-07-31T19:56:04.874Z,23.02
2022-07-31T19:58:34.008Z,23.00
2022-07-31T20:01:00.951Z,22.98
2022-07-31T20:03:27.431Z,22.97
2022-07-31T20:05:55.842Z,22.95
2022-07-31T20:08:23.181Z,22.93
2022-07-31T20:10:50.037Z,22.83
2022-07-31T20:13:18.940Z,22.71
2022-07-31T20:15:52.442Z,22.59
2022-07-31T20:18:27.250Z,22.47
2022-07-31T20:21:06.393Z,22.36
2022-07-31T20:23:36.096Z,22.25
2022-07-31T20:26:08.527Z,22.15
2022-07-31T20:28:36.129Z,22.06
2022-07-31T20:31:02.856Z,21.97
2022-07-31T20:33:30.545Z,21.86
2022-07-31T20:35:58.379Z,21.76
2022-07-31T20:38:25.228Z,21.67
2022-07-31T20:40:55.461Z,21.57
2022-07-31T20:43:23.872Z,21.49
2022-07-31T20:45:50.916Z,21.40
2022-07-31T20:48:17.952Z,21.33
2022-07-31T20:50:48.028Z,21.25
2022-07-31T20:53:16.235Z,21.18
2022-07-31T20:55:48.498Z,21.12
2022-07-31T20:58:15.941Z,21.06
2022-07-31T21:00:43.172Z,21.01
2022-07-31T21:03:10.205Z,20.96
2022-07-31T21:05:38.677Z,20.90
2022-07-31T21:08:05.213Z,20.85
2022-07-31T21:10:34.353Z,20.80
2022-07-31T21:13:01.107Z,20.75
2022-07-31T21:15:44.095Z,20.70
2022-07-31T21:18:16.303Z,20.65
2022-07-31T21:20:52.177Z,20.59
2022-07-31T21:23:24.988Z,20.53
2022-07-31T21:25:53.759Z,20.50
2022-07-31T21:28:21.932Z,20.46
2022-07-31T21:30:49.529Z,20.42
2022-07-31T21:33:17.336Z,20.37
2022-07-31T21:35:44.401Z,20.32
2022-07-31T21:38:11.900Z,20.28
2022-07-31T21:40:39.689Z,20.26
2022-07-31T21:43:06.629Z,20.22
2022-07-31T21:45:43.413Z,20.19
2022-07-31T21:48:18.733Z,20.16
2022-07-31T21:50:45.741Z,20.23
2022-07-31T21:53:13.342Z,20.32
2022-07-31T21:55:40.623Z,20.43
2022-07-31T21:58:08.328Z,20.50
2022-07-31T22:00:35.397Z,20.52
2022-07-31T22:03:02.987Z,20.49
2022-07-31T22:05:51.379Z,20.49
2022-07-31T22:08:18.306Z,20.44
2022-07-31T22:10:45.240Z,20.36
2022-07-31T22:13:12.388Z,20.29
2022-07-31T22:15:58.228Z,20.20
2022-07-31T22:18:31.510Z,20.07
2022-07-31T22:20:59.466Z,19.97
2022-07-31T22:23:26.892Z,19.86
2022-07-31T22:25:53.866Z,19.75
2022-07-31T22:28:21.993Z,19.68
2022-07-31T22:30:48.969Z,19.61
2022-07-31T22:33:15.532Z,19.55
2022-07-31T22:35:43.327Z,19.50
2022-07-31T22:38:12.637Z,19.44
2022-07-31T22:40:39.767Z,19.39
2022-07-31T22:44:10.795Z,19.33
2022-07-31T22:45:59.112Z,19.28
2022-07-31T22:48:27.208Z,19.23
2022-07-31T22:50:54.823Z,19.20
2022-07-31T22:53:21.299Z,19.17
2022-07-31T22:55:47.807Z,19.15
2022-07-31T22:58:14.579Z,19.13
2022-07-31T23:00:41.875Z,19.12
2022-07-31T23:03:11.502Z,19.10
2022-07-31T23:06:02.872Z,19.08
2022-07-31T23:08:24.199Z,19.05
2022-07-31T23:10:51.030Z,19.01
2022-07-31T23:13:17.435Z,18.96
2022-07-31T23:15:44.206Z,18.89
2022-07-31T23:18:11.249Z,18.83
2022-07-31T23:20:38.794Z,18.77
2022-07-31T23:23:05.439Z,18.70
2022-07-31T23:25:32.827Z,18.64
2022-07-31T23:27:59.207Z,18.58
2022-07-31T23:30:26.995Z,18.52
2022-07-31T23:32:54.845Z,18.45
2022-07-31T23:35:21.607Z,18.38
2022-07-31T23:37:49.245Z,18.31
2022-07-31T23:40:15.804Z,18.26
2022-07-31T23:42:45.707Z,18.21
2022-07-31T23:45:15.330Z,18.15
2022-07-31T23:47:46.215Z,18.08
2022-07-31T23:50:14.701Z,18.02
2022-07-31T23:52:44.774Z,17.98
2022-07-31T23:55:11.674Z,17.94
2022-07-31T23:57:40.248Z,17.90
